createdAt,value
2017-03-02T00:00:58.813Z,949.41
2017-03-02T00:02:08.411Z,949.45
2017-03-02T00:03:17.574Z,949.51
2017-03-02T00:04:27.190Z,949.45
2017-03-02T00:05:36.404Z,949.47
2017-03-02T00:06:45.997Z,949.29
2017-03-02T00:07:55.222Z,949.59
2017-03-02T00:09:05.182Z,949.63
2017-03-02T00:10:15.483Z,949.6
2017-03-02T00:11:25.034Z,949.67
2017-03-02T00:12:33.863Z,949.64
2017-03-02T00:13:44.231Z,949.64
2017-03-02T00:14:53.825Z,949.71
2017-03-02T00:16:02.645Z,949.58
2017-03-02T00:17:11.841Z,949.77
2017-03-02T00:18:21.064Z,949.68
2017-03-02T00:19:30.918Z,949.76
2017-03-02T00:20:40.077Z,949.76
2017-03-02T00:21:50.047Z,949.68
2017-03-02T00:22:58.867Z,949.87
2017-03-02T00:24:08.097Z,949.82
2017-03-02T00:25:17.305Z,949.91
2017-03-02T00:26:26.921Z,949.91
2017-03-02T00:27:36.523Z,949.89
2017-03-02T00:28:46.893Z,949.92
2017-03-02T00:29:56.894Z,949.98
2017-03-02T00:31:07.658Z,949.94
2017-03-02T00:32:17.258Z,949.95
2017-03-02T00:33:26.399Z,949.99
2017-03-02T00:34:35.603Z,950.01
2017-03-02T00:35:45.970Z,950
2017-03-02T00:36:54.790Z,950.01
2017-03-02T00:38:04.777Z,950.1
2017-03-02T00:39:15.153Z,950.11
2017-03-02T00:40:25.553Z,950.16
2017-03-02T00:41:35.154Z,950.14
2017-03-02T00:42:44.695Z,950.26
2017-03-02T00:43:54.228Z,950.33
2017-03-02T00:45:04.199Z,950.23
2017-03-02T00:46:14.573Z,950.25
2017-03-02T00:47:24.859Z,950.34
2017-03-02T00:48:34.791Z,950.29
2017-03-02T00:49:44.407Z,950.27
2017-03-02T00:50:53.608Z,950.22
2017-03-02T00:52:03.616Z,950.29
2017-03-02T00:53:12.842Z,950.31
2017-03-02T00:54:21.661Z,950.45
2017-03-02T00:55:31.799Z,950.37
2017-03-02T00:56:40.615Z,950.34
2017-03-02T00:57:50.211Z,950.3
2017-03-02T00:58:59.402Z,950.28
2017-03-02T01:00:09.330Z,950.33
2017-03-02T01:01:18.532Z,950.31
2017-03-02T01:02:28.118Z,950.3
2017-03-02T01:03:38.495Z,950.3
2017-03-02T01:04:48.088Z,950.33
2017-03-02T01:05:58.066Z,950.4
2017-03-02T01:07:07.983Z,950.44
2017-03-02T01:08:17.607Z,950.5
2017-03-02T01:09:27.593Z,950.44
2017-03-02T01:10:38.031Z,950.46
2017-03-02T01:11:47.243Z,950.46
2017-03-02T01:12:57.632Z,950.39
2017-03-02T01:14:07.970Z,950.47
2017-03-02T01:15:17.554Z,950.4
2017-03-02T01:16:27.899Z,950.47
2017-03-02T01:17:37.842Z,950.5
2017-03-02T01:18:48.606Z,950.51
2017-03-02T01:19:57.753Z,950.45
2017-03-02T01:21:07.736Z,950.48
2017-03-02T01:22:17.323Z,950.36
2017-03-02T01:23:26.540Z,950.43
2017-03-02T01:24:36.875Z,950.47
2017-03-02T01:25:46.096Z,950.42
2017-03-02T01:26:56.072Z,950.35
2017-03-02T01:28:05.267Z,950.39
2017-03-02T01:29:14.872Z,950.32
2017-03-02T01:30:24.476Z,950.33
2017-03-02T01:31:34.463Z,950.4
2017-03-02T01:32:44.446Z,950.36
2017-03-02T01:33:54.021Z,950.4
2017-03-02T01:35:04.397Z,950.44
2017-03-02T01:36:13.608Z,950.37
2017-03-02T01:37:22.824Z,950.42
2017-03-02T01:38:32.852Z,950.42
2017-03-02T01:39:42.444Z,950.43
2017-03-02T01:40:51.620Z,950.43
2017-03-02T01:42:01.163Z,950.39
2017-03-02T01:43:10.788Z,950.42
2017-03-02T01:44:20.410Z,950.31
2017-03-02T01:45:29.957Z,950.41
2017-03-02T01:46:39.913Z,950.4
2017-03-02T01:47:49.052Z,950.47
2017-03-02T01:48:58.647Z,950.54
2017-03-02T01:50:08.639Z,950.39
2017-03-02T01:51:17.868Z,950.42
2017-03-02T01:52:27.874Z,950.39
2017-03-02T01:53:36.694Z,950.46
2017-03-02T01:54:46.274Z,950.5
2017-03-02T01:55:56.272Z,950.38
2017-03-02T01:57:06.662Z,950.43
2017-03-02T01:58:16.663Z,950.44
2017-03-02T01:59:26.635Z,950.43
2017-03-02T02:00:35.875Z,950.46
2017-03-02T02:01:45.866Z,950.45
2017-03-02T02:02:55.862Z,950.44
2017-03-02T02:04:06.236Z,950.45
2017-03-02T02:05:15.832Z,950.48
2017-03-02T02:06:25.427Z,950.45
2017-03-02T02:07:35.003Z,950.48
2017-03-02T02:08:44.183Z,950.5
2017-03-02T02:09:53.371Z,950.47
2017-03-02T02:11:03.741Z,950.47
2017-03-02T02:12:13.259Z,950.41
2017-03-02T02:13:22.802Z,950.5
2017-03-02T02:14:32.788Z,950.43
2017-03-02T02:15:41.597Z,950.39
2017-03-02T02:16:51.181Z,950.43
2017-03-02T02:18:00.800Z,950.43
2017-03-02T02:19:09.623Z,950.45
2017-03-02T02:20:19.975Z,950.46
2017-03-02T02:21:29.341Z,950.62
2017-03-02T02:22:38.576Z,950.59
2017-03-02T02:23:48.579Z,950.54
2017-03-02T02:24:58.569Z,950.62
2017-03-02T02:26:07.803Z,950.52
2017-03-02T02:27:16.645Z,950.6
2017-03-02T02:28:27.021Z,950.59
2017-03-02T02:29:36.565Z,950.53
2017-03-02T02:30:45.781Z,950.4
2017-03-02T02:31:55.780Z,950.58
2017-03-02T02:33:05.399Z,950.47
2017-03-02T02:34:14.601Z,950.48
2017-03-02T02:35:24.206Z,950.55
2017-03-02T02:36:33.819Z,950.42
2017-03-02T02:37:42.649Z,950.49
2017-03-02T02:38:52.630Z,950.5
2017-03-02T02:40:02.231Z,950.44
2017-03-02T02:41:11.374Z,950.5
2017-03-02T02:42:21.358Z,950.55
2017-03-02T02:43:31.693Z,950.51
2017-03-02T02:44:41.290Z,950.51
2017-03-02T02:45:50.104Z,950.65
2017-03-02T02:47:00.494Z,950.71
2017-03-02T02:48:09.698Z,950.51
2017-03-02T02:49:19.289Z,950.66
2017-03-02T02:50:29.295Z,950.63
2017-03-02T02:51:38.865Z,950.68
2017-03-02T02:52:48.405Z,950.66
2017-03-02T02:53:58.377Z,950.67
2017-03-02T02:55:07.964Z,950.76
2017-03-02T02:56:17.944Z,950.7
2017-03-02T02:57:27.939Z,950.78
2017-03-02T02:58:37.516Z,950.82
2017-03-02T02:59:47.433Z,950.83
2017-03-02T03:00:56.256Z,950.74
2017-03-02T03:02:05.870Z,950.76
2017-03-02T03:03:15.866Z,950.96
2017-03-02T03:04:25.407Z,950.84
2017-03-02T03:05:35.407Z,950.88
2017-03-02T03:06:45.772Z,950.8
2017-03-02T03:07:55.004Z,950.83
2017-03-02T03:09:04.229Z,950.78
2017-03-02T03:10:14.215Z,950.79
2017-03-02T03:11:24.219Z,950.87
2017-03-02T03:12:34.581Z,950.79
2017-03-02T03:13:44.581Z,950.98
2017-03-02T03:14:54.184Z,950.98
2017-03-02T03:16:03.787Z,950.95
2017-03-02T03:17:13.382Z,950.92
2017-03-02T03:18:22.180Z,951.01
2017-03-02T03:19:31.794Z,951.01
2017-03-02T03:20:41.391Z,950.99
2017-03-02T03:21:50.964Z,951.06
2017-03-02T03:23:00.898Z,950.95
2017-03-02T03:24:10.114Z,950.94
2017-03-02T03:25:20.488Z,950.98
2017-03-02T03:26:29.639Z,950.97
2017-03-02T03:27:39.639Z,950.98
2017-03-02T03:28:49.233Z,950.9
2017-03-02T03:29:58.434Z,950.98
2017-03-02T03:31:08.444Z,951.04
2017-03-02T03:32:18.063Z,951.04
2017-03-02T03:33:27.993Z,951.1
2017-03-02T03:34:37.227Z,951.09
2017-03-02T03:35:46.844Z,951.24
2017-03-02T03:36:56.448Z,951.1
2017-03-02T03:38:05.262Z,951.07
2017-03-02T03:39:15.235Z,951.18
2017-03-02T03:40:25.186Z,951.18
2017-03-02T03:41:35.206Z,951.18
2017-03-02T03:42:44.814Z,951.35
2017-03-02T03:43:54.396Z,951.03
2017-03-02T03:45:04.379Z,951.23
2017-03-02T03:46:13.962Z,951.17
2017-03-02T03:47:23.123Z,951.29
2017-03-02T03:48:32.978Z,951.33
2017-03-02T03:49:43.752Z,951.34
2017-03-02T03:50:53.362Z,951.38
2017-03-02T03:52:03.362Z,951.33
2017-03-02T03:53:13.350Z,951.34
2017-03-02T03:54:23.678Z,951.38
2017-03-02T03:55:33.716Z,951.51
2017-03-02T03:56:42.918Z,951.62
2017-03-02T03:57:52.912Z,951.59
2017-03-02T03:59:03.617Z,951.56
2017-03-02T04:00:13.616Z,951.36
2017-03-02T04:01:23.593Z,951.64
2017-03-02T04:02:32.833Z,951.67
2017-03-02T04:03:42.418Z,951.53
2017-03-02T04:04:52.004Z,951.67
2017-03-02T04:06:01.974Z,951.48
2017-03-02T04:07:12.335Z,951.58
2017-03-02T04:08:22.315Z,951.39
2017-03-02T04:09:32.302Z,951.5
2017-03-02T04:10:41.900Z,951.54
2017-03-02T04:11:51.111Z,951.52
2017-03-02T04:13:01.078Z,951.71
2017-03-02T04:14:11.024Z,951.87
2017-03-02T04:15:21.034Z,951.7
2017-03-02T04:16:30.179Z,951.62
2017-03-02T04:17:39.388Z,951.72
2017-03-02T04:18:49.370Z,951.87
2017-03-02T04:19:58.945Z,951.74
2017-03-02T04:21:08.149Z,951.76
2017-03-02T04:22:17.745Z,951.78
2017-03-02T04:23:36.801Z,951.8
2017-03-02T04:24:46.396Z,951.81
2017-03-02T04:25:56.399Z,951.88
2017-03-02T04:27:05.993Z,951.87
2017-03-02T04:28:15.579Z,951.88
2017-03-02T04:29:25.135Z,951.85
2017-03-02T04:30:34.944Z,951.88
2017-03-02T04:31:43.782Z,951.85
2017-03-02T04:32:52.977Z,951.9
2017-03-02T04:34:02.963Z,951.81
2017-03-02T04:35:12.134Z,951.94
2017-03-02T04:36:21.669Z,951.88
2017-03-02T04:37:32.198Z,951.93
2017-03-02T04:38:42.554Z,952.11
2017-03-02T04:39:52.529Z,952.05
2017-03-02T04:41:02.923Z,952.02
2017-03-02T04:42:12.513Z,952.19
2017-03-02T04:43:22.483Z,952.28
2017-03-02T04:44:32.005Z,952.4
2017-03-02T04:45:41.612Z,952.41
2017-03-02T04:46:50.817Z,952.47
2017-03-02T04:48:00.002Z,952.3
2017-03-02T04:49:09.932Z,952.51
2017-03-02T04:50:19.918Z,952.26
2017-03-02T04:51:29.817Z,952.57
2017-03-02T04:52:39.411Z,952.65
2017-03-02T04:53:49.381Z,952.32
2017-03-02T04:54:59.318Z,952.34
2017-03-02T04:56:08.521Z,952.34
2017-03-02T04:57:18.102Z,952.34
2017-03-02T04:58:28.074Z,952.4
2017-03-02T04:59:38.026Z,952.46
2017-03-02T05:00:47.975Z,952.56
2017-03-02T05:01:57.162Z,952.58
2017-03-02T05:03:06.736Z,952.61
2017-03-02T05:04:16.276Z,952.63
2017-03-02T05:05:25.865Z,952.73
2017-03-02T05:06:35.855Z,952.76
2017-03-02T05:07:45.479Z,952.86
2017-03-02T05:08:55.477Z,952.73
2017-03-02T05:10:05.014Z,953.02
2017-03-02T05:11:15.006Z,953.02
2017-03-02T05:12:24.166Z,952.93
2017-03-02T05:13:34.154Z,953.06
2017-03-02T05:14:44.141Z,953.04
2017-03-02T05:15:52.964Z,953.11
2017-03-02T05:17:02.552Z,953.15
2017-03-02T05:18:13.354Z,953.14
2017-03-02T05:19:22.952Z,953.23
2017-03-02T05:20:32.155Z,953.31
2017-03-02T05:21:41.382Z,953.25
2017-03-02T05:22:50.572Z,953.44
2017-03-02T05:24:00.492Z,953.35
2017-03-02T05:25:10.091Z,953.31
2017-03-02T05:26:19.677Z,953.31
2017-03-02T05:27:29.693Z,953.39
2017-03-02T05:28:39.283Z,953.41
2017-03-02T05:29:48.876Z,953.36
2017-03-02T05:30:59.250Z,953.34
2017-03-02T05:32:08.822Z,953.5
2017-03-02T05:33:18.408Z,953.43
2017-03-02T05:34:27.815Z,953.55
2017-03-02T05:35:37.400Z,953.66
2017-03-02T05:36:46.990Z,953.71
2017-03-02T05:37:56.173Z,953.61
2017-03-02T05:39:05.392Z,953.62
2017-03-02T05:40:15.379Z,953.55
2017-03-02T05:41:25.310Z,953.65
2017-03-02T05:42:35.292Z,953.66
2017-03-02T05:43:45.281Z,953.65
2017-03-02T05:44:54.813Z,953.42
2017-03-02T05:46:04.785Z,953.61
2017-03-02T05:47:15.113Z,953.62
2017-03-02T05:48:25.287Z,953.47
2017-03-02T05:49:34.858Z,953.63
2017-03-02T05:50:45.203Z,953.66
2017-03-02T05:51:54.417Z,953.65
2017-03-02T05:53:04.345Z,953.58
2017-03-02T05:54:14.277Z,953.72
2017-03-02T05:55:23.452Z,953.68
2017-03-02T05:56:32.644Z,953.71
2017-03-02T05:57:41.849Z,953.83
2017-03-02T05:58:51.377Z,953.7
2017-03-02T06:00:01.299Z,953.72
2017-03-02T06:01:11.281Z,953.79
2017-03-02T06:02:20.881Z,953.82
2017-03-02T06:03:30.084Z,953.82
2017-03-02T06:04:40.009Z,953.93
2017-03-02T06:05:48.831Z,953.79
2017-03-02T06:06:58.438Z,953.79
2017-03-02T06:08:08.804Z,953.89
2017-03-02T06:09:18.004Z,953.82
2017-03-02T06:10:28.336Z,953.78
2017-03-02T06:11:38.310Z,953.9
2017-03-02T06:12:48.282Z,953.95
2017-03-02T06:13:58.260Z,953.86
2017-03-02T06:15:08.233Z,953.91
2017-03-02T06:16:17.470Z,953.82
2017-03-02T06:17:27.614Z,953.91
2017-03-02T06:18:36.812Z,953.89
2017-03-02T06:19:46.414Z,953.91
2017-03-02T06:20:56.777Z,953.84
2017-03-02T06:22:06.373Z,953.76
2017-03-02T06:23:16.300Z,953.83
2017-03-02T06:24:25.886Z,953.72
2017-03-02T06:25:36.253Z,953.83
2017-03-02T06:26:46.170Z,953.88
2017-03-02T06:27:55.412Z,953.76
2017-03-02T06:29:05.401Z,953.75
2017-03-02T06:30:16.177Z,953.86
2017-03-02T06:31:26.150Z,954.02
2017-03-02T06:32:35.376Z,954.08
2017-03-02T06:33:45.786Z,954.24
2017-03-02T06:34:55.001Z,954.53
2017-03-02T06:36:04.984Z,954.29
2017-03-02T06:37:14.807Z,953.97
2017-03-02T06:38:24.412Z,954.01
2017-03-02T06:39:34.012Z,954.04
2017-03-02T06:40:43.624Z,954.14
2017-03-02T06:41:53.993Z,954.15
2017-03-02T06:43:04.191Z,954.19
2017-03-02T06:44:13.009Z,954.25
2017-03-02T06:45:22.231Z,954.31
2017-03-02T06:46:31.467Z,954.3
2017-03-02T06:47:41.091Z,954.38
2017-03-02T06:48:50.323Z,954.4
2017-03-02T06:49:59.880Z,954.37
2017-03-02T06:51:09.507Z,954.4
2017-03-02T06:52:19.122Z,954.43
2017-03-02T06:53:29.099Z,954.4
2017-03-02T06:54:38.329Z,954.39
2017-03-02T06:55:48.316Z,954.39
2017-03-02T06:56:57.133Z,954.42
2017-03-02T06:58:06.703Z,954.47
2017-03-02T06:59:15.915Z,954.34
2017-03-02T07:00:25.116Z,954.39
2017-03-02T07:01:34.346Z,954.44
2017-03-02T07:02:44.340Z,954.36
2017-03-02T07:03:53.916Z,954.35
2017-03-02T07:05:03.122Z,954.42
2017-03-02T07:06:13.095Z,954.49
2017-03-02T07:07:22.654Z,954.53
2017-03-02T07:08:32.582Z,954.51
2017-03-02T07:09:42.184Z,954.51
2017-03-02T07:10:51.779Z,954.58
2017-03-02T07:12:01.307Z,954.62
2017-03-02T07:13:11.282Z,954.69
2017-03-02T07:14:20.828Z,954.6
2017-03-02T07:15:31.021Z,954.74
2017-03-02T07:16:41.019Z,954.64
2017-03-02T07:17:50.606Z,954.6
2017-03-02T07:19:00.591Z,954.65
2017-03-02T07:20:10.517Z,954.67
2017-03-02T07:21:19.762Z,954.62
2017-03-02T07:22:29.755Z,954.7
2017-03-02T07:23:39.348Z,954.79
2017-03-02T07:24:49.720Z,954.83
2017-03-02T07:26:00.069Z,954.96
2017-03-02T07:27:09.992Z,954.83
2017-03-02T07:28:19.190Z,954.77
2017-03-02T07:29:28.768Z,954.88
2017-03-02T07:30:38.758Z,954.97
2017-03-02T07:31:48.761Z,954.92
2017-03-02T07:32:58.698Z,954.92
2017-03-02T07:34:08.294Z,955.01
2017-03-02T07:35:19.115Z,955.07
2017-03-02T07:36:28.648Z,955.08
2017-03-02T07:37:38.842Z,955.11
2017-03-02T07:38:48.060Z,955.11
2017-03-02T07:39:57.677Z,955.18
2017-03-02T07:41:07.609Z,955.18
2017-03-02T07:42:18.004Z,955.26
2017-03-02T07:43:28.730Z,955.32
2017-03-02T07:44:38.770Z,955.37
2017-03-02T07:45:48.756Z,955.33
2017-03-02T07:46:58.344Z,955.45
2017-03-02T07:48:08.278Z,955.24
2017-03-02T07:49:17.486Z,955.52
2017-03-02T07:50:27.480Z,955.47
2017-03-02T07:51:37.475Z,955.54
2017-03-02T07:52:47.469Z,955.49
2017-03-02T07:53:57.061Z,955.52
2017-03-02T07:55:07.038Z,955.54
2017-03-02T07:56:17.348Z,955.62
2017-03-02T07:57:26.945Z,955.53
2017-03-02T07:58:37.307Z,955.59
2017-03-02T07:59:46.869Z,955.52
2017-03-02T08:00:56.114Z,955.63
2017-03-02T08:02:05.308Z,955.72
2017-03-02T08:03:15.672Z,955.7
2017-03-02T08:04:25.247Z,955.66
2017-03-02T08:05:34.788Z,955.92
2017-03-02T08:06:45.170Z,955.69
2017-03-02T08:07:54.428Z,955.75
2017-03-02T08:09:04.815Z,955.64
2017-03-02T08:10:15.189Z,955.69
2017-03-02T08:11:25.191Z,955.76
2017-03-02T08:12:34.397Z,955.84
2017-03-02T08:13:43.996Z,955.76
2017-03-02T08:14:53.571Z,955.83
2017-03-02T08:16:02.738Z,955.86
2017-03-02T08:17:13.111Z,955.81
2017-03-02T08:18:23.496Z,955.75
2017-03-02T08:19:33.297Z,955.88
2017-03-02T08:20:43.314Z,955.86
2017-03-02T08:21:52.909Z,955.92
2017-03-02T08:23:02.532Z,955.94
2017-03-02T08:24:12.524Z,955.91
2017-03-02T08:25:22.142Z,955.91
2017-03-02T08:26:32.130Z,956.02
2017-03-02T08:27:42.104Z,955.79
2017-03-02T08:28:50.918Z,955.96
2017-03-02T08:30:00.446Z,955.96
2017-03-02T08:31:10.042Z,955.94
2017-03-02T08:32:19.258Z,955.99
2017-03-02T08:33:28.879Z,955.98
2017-03-02T08:34:38.500Z,956.08
2017-03-02T08:35:47.261Z,956.1
2017-03-02T08:36:56.879Z,956.1
2017-03-02T08:38:07.266Z,956.23
2017-03-02T08:39:16.472Z,956.1
2017-03-02T08:40:26.049Z,956.12
2017-03-02T08:41:36.028Z,956.07
2017-03-02T08:42:45.607Z,956.19
2017-03-02T08:43:55.215Z,956.16
2017-03-02T08:45:05.570Z,956.23
2017-03-02T08:46:15.523Z,956.16
2017-03-02T08:47:25.457Z,956.07
2017-03-02T08:48:34.673Z,956.27
2017-03-02T08:49:43.491Z,956.27
2017-03-02T08:50:53.421Z,956.22
2017-03-02T08:52:03.025Z,956.34
2017-03-02T08:53:12.634Z,956.21
2017-03-02T08:54:22.649Z,956.26
2017-03-02T08:55:32.254Z,956.36
2017-03-02T08:56:41.459Z,956.32
2017-03-02T08:57:51.808Z,956.31
2017-03-02T08:59:01.809Z,956.39
2017-03-02T09:00:12.130Z,956.43
2017-03-02T09:01:20.929Z,956.42
2017-03-02T09:02:30.880Z,956.43
2017-03-02T09:03:40.456Z,956.54
2017-03-02T09:04:51.159Z,956.45
2017-03-02T09:06:01.134Z,956.48
2017-03-02T09:07:10.279Z,956.59
2017-03-02T09:08:19.500Z,956.51
2017-03-02T09:09:29.974Z,956.68
2017-03-02T09:10:39.212Z,956.64
2017-03-02T09:11:49.206Z,956.69
2017-03-02T09:12:58.790Z,956.66
2017-03-02T09:14:09.133Z,956.72
2017-03-02T09:15:18.737Z,956.73
2017-03-02T09:16:27.948Z,956.85
2017-03-02T09:17:37.189Z,956.66
2017-03-02T09:18:46.808Z,956.77
2017-03-02T09:19:56.395Z,956.75
2017-03-02T09:21:05.985Z,956.89
2017-03-02T09:22:15.509Z,956.86
2017-03-02T09:23:25.493Z,956.89
2017-03-02T09:24:34.283Z,956.84
2017-03-02T09:25:44.205Z,956.83
2017-03-02T09:26:53.727Z,956.96
2017-03-02T09:28:02.930Z,957
2017-03-02T09:29:12.931Z,957.01
2017-03-02T09:30:22.130Z,957.01
2017-03-02T09:31:32.109Z,957.11
2017-03-02T09:32:42.096Z,957.03
2017-03-02T09:33:51.283Z,957.05
2017-03-02T09:35:01.583Z,957.1
2017-03-02T09:36:11.201Z,957.06
2017-03-02T09:37:21.198Z,957.08
2017-03-02T09:38:30.224Z,957.17
2017-03-02T09:39:39.807Z,957.2
2017-03-02T09:40:49.781Z,957.16
2017-03-02T09:41:59.737Z,957.24
2017-03-02T09:43:09.683Z,957.3
2017-03-02T09:44:19.288Z,957.24
2017-03-02T09:45:28.519Z,957.3
2017-03-02T09:46:37.350Z,957.35
2017-03-02T09:47:47.304Z,957.48
2017-03-02T09:48:57.212Z,957.33
2017-03-02T09:50:07.574Z,957.43
2017-03-02T09:51:17.163Z,957.42
2017-03-02T09:52:27.158Z,957.45
2017-03-02T09:53:37.534Z,957.4
2017-03-02T09:54:47.515Z,957.46
2017-03-02T09:55:57.498Z,957.48
2017-03-02T09:57:06.662Z,957.53
2017-03-02T09:58:17.020Z,957.54
2017-03-02T09:59:26.165Z,957.52
2017-03-02T10:00:36.138Z,957.64
2017-03-02T10:01:45.356Z,957.63
2017-03-02T10:02:54.954Z,957.58
2017-03-02T10:04:04.511Z,957.69
2017-03-02T10:05:14.094Z,957.93
2017-03-02T10:06:23.298Z,957.75
2017-03-02T10:07:32.882Z,957.78
2017-03-02T10:08:42.867Z,957.74
2017-03-02T10:09:52.055Z,957.94
2017-03-02T10:11:02.447Z,957.83
2017-03-02T10:12:12.024Z,957.79
2017-03-02T10:13:21.943Z,957.98
2017-03-02T10:14:31.561Z,957.93
2017-03-02T10:15:41.571Z,958.06
2017-03-02T10:16:50.792Z,958.13
2017-03-02T10:18:00.377Z,958.05
2017-03-02T10:19:10.312Z,958.07
2017-03-02T10:20:19.511Z,958.27
2017-03-02T10:21:29.484Z,958.22
2017-03-02T10:22:39.476Z,958.25
2017-03-02T10:23:49.430Z,958.35
2017-03-02T10:24:58.594Z,958.37
2017-03-02T10:26:08.182Z,958.36
2017-03-02T10:27:18.158Z,958.34
2017-03-02T10:28:27.410Z,958.41
2017-03-02T10:29:37.034Z,958.41
2017-03-02T10:30:46.248Z,958.4
2017-03-02T10:31:56.243Z,958.56
2017-03-02T10:33:06.234Z,958.56
2017-03-02T10:34:16.234Z,958.62
2017-03-02T10:35:25.822Z,958.53
2017-03-02T10:36:35.573Z,958.63
2017-03-02T10:37:44.782Z,958.63
2017-03-02T10:38:53.989Z,958.72
2017-03-02T10:40:03.999Z,958.73
2017-03-02T10:41:14.004Z,958.77
2017-03-02T10:42:23.508Z,958.8
2017-03-02T10:43:33.140Z,958.81
2017-03-02T10:44:42.301Z,958.88
2017-03-02T10:45:51.882Z,958.86
2017-03-02T10:47:01.817Z,958.93
2017-03-02T10:48:12.204Z,958.97
2017-03-02T10:49:21.637Z,959.03
2017-03-02T10:50:31.223Z,958.98
2017-03-02T10:51:41.154Z,959.03
2017-03-02T10:52:50.291Z,959.16
2017-03-02T10:53:59.837Z,959.16
2017-03-02T10:55:09.767Z,959.09
2017-03-02T10:56:19.309Z,959.15
2017-03-02T10:57:29.726Z,959.36
2017-03-02T10:58:38.927Z,959.26
2017-03-02T10:59:48.912Z,959.21
2017-03-02T11:00:58.507Z,959.35
2017-03-02T11:02:07.705Z,959.36
2017-03-02T11:03:18.087Z,959.4
2017-03-02T11:04:27.302Z,959.44
2017-03-02T11:05:37.285Z,959.45
2017-03-02T11:06:47.281Z,959.41
2017-03-02T11:07:56.493Z,959.33
2017-03-02T11:09:06.096Z,959.48
2017-03-02T11:10:16.104Z,959.48
2017-03-02T11:11:25.707Z,959.45
2017-03-02T11:12:36.060Z,959.49
2017-03-02T11:13:45.311Z,959.51
2017-03-02T11:14:54.909Z,959.45
2017-03-02T11:16:04.826Z,959.58
2017-03-02T11:17:14.053Z,959.54
2017-03-02T11:18:23.249Z,959.68
2017-03-02T11:19:32.433Z,959.53
2017-03-02T11:20:42.038Z,959.67
2017-03-02T11:21:51.235Z,959.73
2017-03-02T11:23:00.438Z,959.79
2017-03-02T11:24:10.010Z,959.75
2017-03-02T11:25:19.208Z,959.81
2017-03-02T11:26:29.188Z,959.83
2017-03-02T11:27:38.409Z,959.85
2017-03-02T11:28:48.356Z,959.83
2017-03-02T11:29:57.548Z,959.87
2017-03-02T11:31:06.740Z,959.94
2017-03-02T11:32:16.407Z,959.93
2017-03-02T11:33:26.400Z,960.09
2017-03-02T11:34:36.517Z,959.94
2017-03-02T11:35:46.119Z,960.01
2017-03-02T11:36:55.735Z,959.94
2017-03-02T11:38:06.127Z,960.07
2017-03-02T11:39:16.113Z,960.09
2017-03-02T11:40:26.108Z,960.04
2017-03-02T11:41:35.325Z,960.1
2017-03-02T11:42:44.148Z,960.06
2017-03-02T11:43:53.742Z,960.1
2017-03-02T11:45:03.726Z,960.12
2017-03-02T11:46:13.323Z,960.11
2017-03-02T11:47:22.535Z,960.17
2017-03-02T11:48:32.156Z,960.08
2017-03-02T11:49:42.500Z,960.23
2017-03-02T11:50:52.808Z,960.22
2017-03-02T11:52:01.633Z,960.34
2017-03-02T11:53:11.613Z,960.11
2017-03-02T11:54:20.812Z,960.27
2017-03-02T11:55:30.022Z,960.21
2017-03-02T11:56:39.239Z,960.28
2017-03-02T11:57:48.856Z,960.19
2017-03-02T11:58:58.861Z,960.26
2017-03-02T12:00:08.793Z,960.37
2017-03-02T12:01:18.395Z,960.3
2017-03-02T12:02:28.363Z,960.26
2017-03-02T12:03:37.570Z,960.33
2017-03-02T12:04:47.561Z,960.28
2017-03-02T12:05:56.796Z,960.31
2017-03-02T12:07:06.773Z,960.35
2017-03-02T12:08:15.969Z,960.27
2017-03-02T12:09:25.593Z,960.33
2017-03-02T12:10:35.182Z,960.42
2017-03-02T12:11:44.724Z,960.45
2017-03-02T12:12:54.706Z,960.45
2017-03-02T12:14:04.701Z,960.31
2017-03-02T12:15:13.904Z,960.43
2017-03-02T12:16:23.121Z,960.41
2017-03-02T12:17:33.053Z,960.49
2017-03-02T12:18:43.359Z,960.47
2017-03-02T12:19:52.566Z,960.53
2017-03-02T12:21:02.178Z,960.48
2017-03-02T12:22:11.373Z,960.51
2017-03-02T12:23:20.510Z,960.45
2017-03-02T12:24:30.089Z,960.57
2017-03-02T12:25:40.465Z,960.43
2017-03-02T12:26:50.439Z,960.46
2017-03-02T12:28:00.027Z,960.53
2017-03-02T12:29:09.664Z,960.47
2017-03-02T12:30:19.226Z,960.57
2017-03-02T12:31:28.452Z,960.58
2017-03-02T12:32:37.656Z,960.47
2017-03-02T12:33:47.642Z,960.56
2017-03-02T12:34:57.627Z,960.62
2017-03-02T12:36:07.633Z,960.59
2017-03-02T12:37:17.982Z,960.65
2017-03-02T12:38:27.565Z,960.57
2017-03-02T12:39:37.141Z,960.61
2017-03-02T12:40:46.720Z,960.56
2017-03-02T12:41:55.472Z,960.68
2017-03-02T12:43:05.066Z,960.64
2017-03-02T12:44:15.077Z,960.63
2017-03-02T12:45:24.679Z,960.66
2017-03-02T12:46:34.283Z,960.62
2017-03-02T12:47:43.826Z,960.76
2017-03-02T12:48:53.619Z,960.74
2017-03-02T12:50:03.607Z,960.67
2017-03-02T12:51:13.195Z,960.71
2017-03-02T12:52:22.801Z,960.76
2017-03-02T12:53:31.995Z,960.78
2017-03-02T12:54:41.200Z,960.74
2017-03-02T12:55:50.810Z,960.82
2017-03-02T12:57:00.420Z,960.87
2017-03-02T12:58:10.003Z,960.92
2017-03-02T12:59:19.590Z,960.9
2017-03-02T13:00:29.983Z,960.95
2017-03-02T13:01:39.592Z,960.92
2017-03-02T13:02:48.436Z,960.94
2017-03-02T13:03:58.828Z,960.93
2017-03-02T13:05:08.016Z,960.93
2017-03-02T13:06:17.160Z,960.96
2017-03-02T13:07:27.089Z,960.9
2017-03-02T13:08:36.697Z,960.98
2017-03-02T13:09:45.526Z,960.89
2017-03-02T13:10:55.141Z,960.98
2017-03-02T13:12:05.520Z,961
2017-03-02T13:13:15.118Z,961.02
2017-03-02T13:14:24.720Z,961.03
2017-03-02T13:15:34.313Z,961.05
2017-03-02T13:16:43.549Z,960.97
2017-03-02T13:17:53.536Z,961
2017-03-02T13:19:02.767Z,961.02
2017-03-02T13:20:13.145Z,960.93
2017-03-02T13:21:22.702Z,960.98
2017-03-02T13:22:32.275Z,961.01
2017-03-02T13:23:41.800Z,960.98
2017-03-02T13:24:51.025Z,960.96
2017-03-02T13:26:00.220Z,960.96
2017-03-02T13:27:09.760Z,960.99
2017-03-02T13:28:18.997Z,960.99
2017-03-02T13:29:28.984Z,961.01
2017-03-02T13:30:38.981Z,961.05
2017-03-02T13:31:48.569Z,961.06
2017-03-02T13:32:57.377Z,961
2017-03-02T13:34:06.929Z,961.02
2017-03-02T13:35:16.567Z,961.02
2017-03-02T13:36:26.935Z,961.08
2017-03-02T13:37:37.292Z,961.07
2017-03-02T13:38:46.912Z,961.06
2017-03-02T13:39:56.130Z,961.14
2017-03-02T13:41:05.736Z,961.1
2017-03-02T13:42:15.341Z,961.15
2017-03-02T13:43:24.877Z,961.17
2017-03-02T13:44:34.473Z,961.23
2017-03-02T13:45:44.066Z,961.31
2017-03-02T13:46:54.078Z,961.28
2017-03-02T13:48:03.668Z,961.33
2017-03-02T13:49:12.500Z,961.35
2017-03-02T13:50:22.110Z,961.26
2017-03-02T13:51:31.686Z,961.44
2017-03-02T13:52:41.285Z,961.34
2017-03-02T13:53:50.113Z,961.29
2017-03-02T13:54:59.739Z,961.3
2017-03-02T13:56:09.321Z,961.36
2017-03-02T13:57:18.455Z,961.3
2017-03-02T13:58:27.671Z,961.32
2017-03-02T13:59:37.300Z,961.34
2017-03-02T14:00:46.110Z,961.3
2017-03-02T14:01:56.098Z,961.33
2017-03-02T14:03:05.315Z,961.45
2017-03-02T14:04:15.313Z,961.41
2017-03-02T14:05:24.902Z,961.45
2017-03-02T14:06:33.668Z,961.34
2017-03-02T14:07:43.236Z,961.5
2017-03-02T14:08:53.242Z,961.43
2017-03-02T14:10:02.476Z,961.37
2017-03-02T14:11:12.065Z,961.37
2017-03-02T14:12:21.642Z,961.4
2017-03-02T14:13:31.652Z,961.4
2017-03-02T14:14:41.251Z,961.49
2017-03-02T14:15:50.043Z,961.44
2017-03-02T14:16:59.989Z,961.46
2017-03-02T14:18:09.543Z,961.55
2017-03-02T14:19:19.909Z,961.52
2017-03-02T14:20:29.890Z,961.59
2017-03-02T14:21:39.961Z,961.62
2017-03-02T14:22:50.335Z,961.68
2017-03-02T14:24:00.722Z,961.59
2017-03-02T14:25:10.689Z,961.67
2017-03-02T14:26:20.292Z,961.65
2017-03-02T14:27:29.897Z,961.68
2017-03-02T14:28:39.473Z,961.69
2017-03-02T14:29:49.070Z,961.74
2017-03-02T14:30:58.656Z,961.75
2017-03-02T14:32:08.660Z,961.71
2017-03-02T14:33:18.230Z,961.81